createdAt,value
2023-03-20T00:00:43.583Z,3.60
2023-03-20T00:03:46.107Z,2.85
2023-03-20T00:09:49.869Z,3.47
2023-03-20T00:12:51.917Z,4.53
2023-03-20T00:15:56.690Z,3.65
2023-03-20T00:18:58.908Z,6.28
2023-03-20T00:22:01.197Z,4.75
2023-03-20T00:25:05.172Z,4.57
2023-03-20T00:28:25.714Z,4.00
2023-03-20T00:31:32.351Z,4.47
2023-03-20T00:34:34.352Z,4.80
2023-03-20T00:37:36.403Z,5.10
2023-03-20T00:40:38.520Z,3.30
2023-03-20T00:43:40.682Z,4.22
2023-03-20T00:46:44.429Z,5.07
2023-03-20T00:49:49.287Z,3.92
2023-03-20T00:52:52.000Z,2.85
2023-03-20T00:55:53.990Z,4.03
2023-03-20T00:58:56.301Z,3.47
2023-03-20T01:02:01.332Z,4.70
2023-03-20T01:05:03.742Z,4.32
2023-03-20T01:08:25.477Z,3.47
2023-03-20T01:11:28.033Z,3.40
2023-03-20T01:17:31.911Z,3.35
2023-03-20T01:20:33.843Z,4.72
2023-03-20T01:23:35.734Z,4.25
2023-03-20T01:26:42.357Z,3.72
2023-03-20T01:29:44.449Z,3.78
2023-03-20T01:32:48.003Z,5.00
2023-03-20T01:35:50.943Z,3.28
2023-03-20T01:38:57.235Z,2.97
2023-03-20T01:42:00.981Z,4.10
2023-03-20T01:45:16.147Z,4.78
2023-03-20T01:51:23.497Z,3.38
2023-03-20T01:54:36.020Z,3.60
2023-03-20T01:57:41.438Z,4.45
2023-03-20T02:00:45.003Z,4.70
2023-03-20T02:03:51.748Z,5.38
2023-03-20T02:07:10.844Z,4.50
2023-03-20T02:10:18.337Z,4.63
2023-03-20T02:13:41.438Z,4.10
2023-03-20T02:16:43.563Z,4.03
2023-03-20T02:20:03.352Z,4.18
2023-03-20T02:23:41.274Z,4.70
2023-03-20T02:27:15.011Z,5.57
2023-03-20T02:30:29.169Z,5.50
2023-03-20T02:33:47.706Z,4.55
2023-03-20T02:37:13.628Z,5.55
2023-03-20T02:40:48.184Z,5.00
2023-03-20T02:44:05.576Z,5.35
2023-03-20T02:47:17.454Z,5.85
2023-03-20T02:50:36.007Z,5.82
2023-03-20T02:53:53.434Z,6.50
2023-03-20T02:57:10.629Z,5.47
2023-03-20T03:00:34.168Z,5.78
2023-03-20T03:03:50.306Z,7.20
2023-03-20T03:06:54.662Z,5.63
2023-03-20T03:10:06.984Z,5.68
2023-03-20T03:13:15.600Z,5.95
2023-03-20T03:16:35.990Z,5.40
2023-03-20T03:19:42.112Z,5.05
2023-03-20T03:22:44.851Z,7.55
2023-03-20T03:29:02.195Z,6.47
2023-03-20T03:32:06.758Z,7.15
2023-03-20T03:35:16.580Z,7.35
2023-03-20T03:38:21.348Z,6.90
2023-03-20T03:41:26.249Z,5.93
2023-03-20T03:44:37.945Z,7.43
2023-03-20T03:47:58.008Z,7.57
2023-03-20T03:51:11.576Z,7.53
2023-03-20T03:54:35.896Z,7.55
2023-03-20T03:58:30.387Z,8.88
2023-03-20T04:01:34.413Z,8.00
2023-03-20T04:04:39.472Z,9.82
2023-03-20T04:07:45.755Z,7.90
2023-03-20T04:10:47.764Z,8.02
2023-03-20T04:13:52.677Z,9.25
2023-03-20T04:16:55.293Z,9.05
2023-03-20T04:19:57.651Z,9.60
2023-03-20T04:22:59.883Z,9.93
2023-03-20T04:26:02.723Z,9.25
2023-03-20T04:29:09.916Z,10.18
2023-03-20T04:32:30.348Z,8.90
2023-03-20T04:35:37.985Z,9.85
2023-03-20T04:38:46.722Z,7.55
2023-03-20T04:41:48.649Z,11.50
2023-03-20T04:44:53.020Z,10.07
2023-03-20T04:47:54.900Z,10.18
2023-03-20T04:50:58.204Z,9.30
2023-03-20T04:54:11.874Z,9.25
2023-03-20T04:57:13.853Z,10.35
2023-03-20T05:00:17.787Z,10.00
2023-03-20T05:03:21.915Z,10.45
2023-03-20T05:06:25.647Z,10.45
2023-03-20T05:09:27.588Z,9.88
2023-03-20T05:12:30.842Z,10.60
2023-03-20T05:15:55.788Z,9.93
2023-03-20T05:19:06.621Z,10.50
2023-03-20T05:22:25.848Z,10.80
2023-03-20T05:25:43.269Z,10.50
2023-03-20T05:28:55.962Z,12.25
2023-03-20T05:32:18.219Z,11.80
2023-03-20T05:35:39.803Z,12.05
2023-03-20T05:38:59.236Z,12.45
2023-03-20T05:42:19.707Z,10.80
2023-03-20T05:45:49.755Z,11.57
2023-03-20T05:49:23.066Z,12.23
2023-03-20T05:52:27.954Z,12.35
2023-03-20T05:55:40.719Z,11.77
2023-03-20T05:59:05.769Z,13.25
2023-03-20T06:02:28.017Z,13.10
2023-03-20T06:05:39.888Z,12.85
2023-03-20T06:08:42.483Z,13.65
2023-03-20T06:11:44.594Z,14.20
2023-03-20T06:17:49.288Z,12.48
2023-03-20T06:20:55.516Z,11.60
2023-03-20T06:23:58.752Z,12.30
2023-03-20T06:27:00.881Z,11.48
2023-03-20T06:30:04.482Z,12.15
2023-03-20T06:33:09.943Z,15.75
2023-03-20T06:36:24.402Z,13.25
2023-03-20T06:39:32.388Z,15.38
2023-03-20T06:42:34.641Z,12.32
2023-03-20T06:45:38.032Z,13.77
2023-03-20T06:48:48.835Z,13.00
2023-03-20T06:51:51.212Z,14.63
2023-03-20T06:54:59.211Z,13.57
2023-03-20T06:58:01.144Z,14.77
2023-03-20T07:01:10.397Z,13.13
2023-03-20T07:04:12.450Z,15.15
2023-03-20T07:07:21.851Z,15.43
2023-03-20T07:10:23.746Z,15.45
2023-03-20T07:13:27.808Z,14.57
2023-03-20T07:16:32.409Z,14.82
2023-03-20T07:19:35.811Z,14.60
2023-03-20T07:22:41.116Z,16.48
2023-03-20T07:25:53.225Z,17.40
2023-03-20T07:28:55.157Z,17.92
2023-03-20T07:31:59.837Z,18.10
2023-03-20T07:35:06.211Z,18.10
2023-03-20T07:41:19.270Z,17.85
2023-03-20T07:44:32.802Z,17.45
2023-03-20T07:47:36.593Z,15.48
2023-03-20T07:50:40.100Z,15.15
2023-03-20T07:53:42.367Z,15.00
2023-03-20T07:56:45.382Z,14.88
2023-03-20T07:59:47.451Z,13.93
2023-03-20T08:02:49.535Z,13.90
2023-03-20T08:05:52.072Z,13.48
2023-03-20T08:08:54.420Z,12.93
2023-03-20T08:11:56.356Z,12.77
2023-03-20T08:14:58.303Z,13.23
2023-03-20T08:18:00.123Z,15.25
2023-03-20T08:21:02.005Z,15.75
2023-03-20T08:24:04.129Z,14.05
2023-03-20T08:27:06.006Z,14.25
2023-03-20T08:30:09.281Z,13.00
2023-03-20T08:33:11.801Z,14.07
2023-03-20T08:36:14.687Z,13.95
2023-03-20T08:39:16.635Z,16.00
2023-03-20T08:42:18.640Z,13.23
2023-03-20T08:45:20.645Z,14.07
2023-03-20T08:48:23.876Z,12.95
2023-03-20T08:51:26.082Z,13.07
2023-03-20T08:54:28.896Z,11.02
2023-03-20T08:57:30.792Z,13.73
2023-03-20T09:00:32.672Z,14.35
2023-03-20T09:03:34.783Z,12.18
2023-03-20T09:06:37.729Z,12.45
2023-03-20T09:09:42.124Z,12.57
2023-03-20T09:12:44.258Z,10.80
2023-03-20T09:15:46.317Z,12.25
2023-03-20T09:18:48.322Z,11.02
2023-03-20T09:21:50.450Z,10.95
2023-03-20T09:24:52.523Z,11.55
2023-03-20T09:27:54.993Z,9.82
2023-03-20T09:33:59.701Z,10.32
2023-03-20T09:37:01.735Z,12.90
2023-03-20T09:40:04.652Z,9.00
2023-03-20T09:43:40.455Z,10.48
2023-03-20T09:46:48.046Z,10.60
2023-03-20T09:50:13.094Z,9.68
2023-03-20T09:53:32.819Z,10.10
2023-03-20T09:56:34.767Z,6.80
2023-03-20T09:59:37.361Z,7.65
2023-03-20T10:02:47.905Z,7.18
2023-03-20T10:06:00.850Z,10.07
2023-03-20T10:09:07.050Z,7.03
2023-03-20T10:12:33.806Z,7.22
2023-03-20T10:15:55.408Z,6.80
2023-03-20T10:19:13.037Z,8.25
2023-03-20T10:22:34.770Z,8.55
2023-03-20T10:25:55.071Z,8.10
2023-03-20T10:28:59.584Z,7.13
2023-03-20T10:32:38.586Z,5.82
2023-03-20T10:35:46.558Z,6.63
2023-03-20T10:39:06.210Z,5.28
2023-03-20T10:42:19.546Z,7.15
2023-03-20T10:45:40.839Z,5.90
2023-03-20T10:48:50.986Z,6.47
2023-03-20T10:51:56.230Z,7.53
2023-03-20T10:55:07.941Z,5.75
2023-03-20T10:58:24.483Z,6.13
2023-03-20T11:01:26.972Z,5.40
2023-03-20T11:04:28.997Z,6.63
2023-03-20T11:07:37.183Z,7.28
2023-03-20T11:10:43.222Z,7.07
2023-03-20T11:13:45.394Z,6.95
2023-03-20T11:16:50.136Z,5.70
2023-03-20T11:19:51.996Z,6.10
2023-03-20T11:23:03.739Z,6.38
2023-03-20T11:26:13.815Z,6.43
2023-03-20T11:29:31.565Z,5.57
2023-03-20T11:32:36.074Z,5.63
2023-03-20T11:35:38.284Z,4.20
2023-03-20T11:41:51.526Z,2.85
2023-03-20T11:45:02.852Z,3.10
2023-03-20T11:48:06.302Z,4.75
2023-03-20T12:03:45.542Z,4.82
2023-03-20T12:06:56.312Z,5.35
2023-03-20T12:10:02.649Z,5.20
2023-03-20T12:13:16.696Z,5.05
2023-03-20T12:16:22.668Z,5.95
2023-03-20T12:19:30.037Z,5.30
2023-03-20T12:22:40.114Z,5.88
2023-03-20T12:26:02.963Z,5.72
2023-03-20T12:29:29.043Z,5.68
2023-03-20T12:32:35.855Z,5.70
2023-03-20T12:35:47.745Z,6.15
2023-03-20T12:38:49.768Z,5.95
2023-03-20T12:42:22.488Z,6.47
2023-03-20T12:45:32.041Z,4.90
2023-03-20T12:48:49.279Z,5.25
2023-03-20T12:52:15.129Z,5.43
2023-03-20T12:55:23.312Z,5.45
2023-03-20T12:58:45.011Z,5.47
2023-03-20T13:01:58.525Z,5.78
2023-03-20T13:05:08.055Z,6.90
2023-03-20T13:08:36.492Z,4.75
2023-03-20T13:11:49.466Z,4.57
2023-03-20T13:15:14.640Z,4.65
2023-03-20T13:18:29.628Z,5.40
2023-03-20T13:21:54.035Z,5.97
2023-03-20T13:25:08.839Z,4.97
2023-03-20T13:28:21.491Z,6.28
2023-03-20T13:31:44.727Z,4.88
2023-03-20T13:35:23.608Z,5.70
2023-03-20T13:38:31.821Z,4.20
2023-03-20T13:41:35.931Z,5.65
2023-03-20T13:44:39.074Z,4.55
2023-03-20T13:47:42.288Z,4.80
2023-03-20T13:51:08.044Z,5.45
2023-03-20T13:54:21.782Z,5.13
2023-03-20T13:57:58.589Z,3.60
2023-03-20T14:01:23.010Z,4.00
2023-03-20T14:04:26.957Z,5.95
2023-03-20T14:07:35.843Z,6.10
2023-03-20T14:10:38.423Z,6.30
2023-03-20T14:13:46.175Z,8.55
2023-03-20T14:16:48.151Z,5.13
2023-03-20T14:19:51.204Z,4.57
2023-03-20T14:22:53.191Z,5.05
2023-03-20T14:25:57.130Z,5.03
2023-03-20T14:29:21.569Z,5.05
2023-03-20T14:32:33.186Z,5.15
2023-03-20T14:35:43.062Z,0.00
2023-03-20T14:39:25.818Z,0.38
2023-03-20T14:42:37.678Z,0.00
2023-03-20T14:45:55.575Z,0.00
2023-03-20T14:49:02.505Z,0.52
2023-03-20T14:52:35.709Z,0.22
2023-03-20T14:55:56.105Z,0.22
2023-03-20T14:59:01.417Z,0.00
2023-03-20T15:02:03.756Z,0.45
2023-03-20T15:05:05.905Z,5.25
2023-03-20T15:08:15.534Z,3.03
2023-03-20T15:11:18.355Z,0.35
2023-03-20T15:14:26.385Z,0.00
2023-03-20T15:17:37.045Z,0.35
2023-03-20T15:20:39.197Z,0.05
2023-03-20T15:23:46.498Z,0.05
2023-03-20T15:26:53.037Z,0.90
2023-03-20T15:29:56.201Z,2.22
2023-03-20T15:32:58.949Z,0.40
2023-03-20T15:36:19.494Z,0.28
2023-03-20T15:39:24.209Z,0.20
2023-03-20T15:42:26.655Z,0.03
2023-03-20T15:45:32.971Z,0.00
2023-03-20T15:48:34.992Z,0.00
2023-03-20T15:51:37.643Z,0.22
2023-03-20T15:54:42.614Z,0.00
2023-03-20T15:57:45.489Z,0.05
2023-03-20T16:00:49.361Z,0.25
2023-03-20T16:03:52.816Z,0.30
2023-03-20T16:06:59.698Z,0.00
2023-03-20T16:10:01.600Z,0.00
2023-03-20T16:13:06.699Z,0.00
2023-03-20T16:16:14.309Z,0.70
2023-03-20T16:19:17.121Z,1.00
2023-03-20T16:22:26.640Z,2.63
2023-03-20T16:25:28.977Z,0.32
2023-03-20T16:31:35.272Z,0.10
2023-03-20T16:34:38.653Z,1.70
2023-03-20T16:37:55.463Z,2.90
2023-03-20T16:41:22.187Z,1.20
2023-03-20T16:44:30.221Z,0.00
2023-03-20T16:47:37.019Z,0.00
2023-03-20T16:50:54.956Z,0.00
2023-03-20T16:53:59.489Z,0.17
2023-03-20T16:57:02.011Z,0.13
2023-03-20T17:00:08.395Z,5.88
2023-03-20T17:03:16.692Z,0.00
2023-03-20T17:06:21.867Z,0.57
2023-03-20T17:09:26.860Z,0.88
2023-03-20T17:12:32.051Z,0.35
2023-03-20T17:15:33.911Z,0.30
2023-03-20T17:18:36.951Z,0.55
2023-03-20T17:21:38.984Z,0.13
2023-03-20T17:24:41.002Z,0.10
2023-03-20T17:27:44.304Z,1.10
2023-03-20T17:30:47.973Z,3.85
2023-03-20T17:33:49.872Z,1.15
2023-03-20T17:36:51.714Z,0.30
2023-03-20T17:39:53.622Z,0.05
2023-03-20T17:42:55.476Z,0.47
2023-03-20T17:45:58.661Z,0.50
2023-03-20T17:49:07.385Z,0.32
2023-03-20T17:52:17.932Z,0.75
2023-03-20T17:55:20.045Z,1.63
2023-03-20T18:01:25.457Z,0.40
2023-03-20T18:04:27.466Z,1.85
2023-03-20T18:07:29.362Z,0.20
2023-03-20T18:10:31.671Z,0.47
2023-03-20T18:13:33.520Z,0.10
2023-03-20T18:16:35.441Z,0.30
2023-03-20T18:19:37.557Z,0.20
2023-03-20T18:22:39.495Z,0.00
2023-03-20T18:25:41.604Z,0.10
2023-03-20T18:28:43.515Z,0.00
2023-03-20T18:31:45.682Z,0.00
2023-03-20T18:34:47.576Z,0.00
2023-03-20T18:37:49.537Z,7.90
2023-03-20T18:40:51.546Z,0.00
2023-03-20T18:43:55.902Z,0.30
2023-03-20T18:46:57.823Z,0.00
2023-03-20T18:49:59.762Z,0.00
2023-03-20T18:53:03.840Z,1.02
2023-03-20T18:56:14.609Z,0.00
2023-03-20T18:59:16.456Z,0.00
2023-03-20T19:02:18.366Z,1.17
2023-03-20T19:05:20.671Z,0.13
2023-03-20T19:08:25.042Z,0.52
2023-03-20T19:11:27.204Z,0.00
2023-03-20T19:14:29.120Z,0.22
2023-03-20T19:17:31.028Z,0.50
2023-03-20T19:20:41.824Z,0.57
2023-03-20T19:23:43.857Z,3.65
2023-03-20T19:26:45.700Z,0.00
2023-03-20T19:29:50.146Z,0.63
2023-03-20T19:32:52.391Z,0.25
2023-03-20T19:36:02.703Z,0.00
2023-03-20T19:39:08.603Z,0.15
2023-03-20T19:42:46.836Z,0.08
2023-03-20T19:45:37.618Z,0.00
2023-03-20T19:48:50.167Z,0.45
2023-03-20T19:51:52.851Z,0.17
2023-03-20T19:55:02.560Z,0.10
2023-03-20T19:58:05.734Z,0.05
2023-03-20T20:04:17.340Z,0.00
2023-03-20T20:10:44.715Z,0.50
2023-03-20T20:14:07.176Z,0.00
2023-03-20T20:17:08.800Z,0.43
2023-03-20T20:20:11.930Z,0.20
2023-03-20T20:23:16.046Z,0.32
2023-03-20T20:26:18.554Z,0.10
2023-03-20T20:29:21.249Z,0.25
2023-03-20T20:32:26.914Z,0.00
2023-03-20T20:35:54.191Z,0.08
2023-03-20T20:38:52.022Z,0.00
2023-03-20T20:41:54.099Z,0.17
2023-03-20T20:44:56.053Z,0.43
2023-03-20T20:47:57.936Z,0.43
2023-03-20T20:51:01.137Z,0.20
2023-03-20T20:54:03.178Z,0.43
2023-03-20T20:57:05.163Z,0.20
2023-03-20T21:00:08.650Z,0.05
2023-03-20T21:03:10.573Z,0.30
2023-03-20T21:06:13.192Z,0.75
2023-03-20T21:09:15.114Z,0.08
2023-03-20T21:12:33.437Z,0.10
2023-03-20T21:15:37.137Z,0.00
2023-03-20T21:18:39.282Z,0.35
2023-03-20T21:21:41.243Z,0.28
2023-03-20T21:24:43.897Z,0.75
2023-03-20T21:31:20.420Z,0.40
2023-03-20T21:34:12.901Z,0.00
2023-03-20T21:38:22.862Z,0.73
2023-03-20T21:40:39.172Z,3.17
2023-03-20T21:43:41.226Z,0.95
2023-03-20T21:47:22.804Z,0.28
2023-03-20T21:54:29.584Z,0.00
2023-03-20T21:57:37.799Z,0.22
2023-03-20T22:07:45.003Z,0.10
2023-03-20T22:11:14.696Z,0.32
2023-03-20T22:14:39.075Z,0.00
2023-03-20T22:21:21.858Z,0.15
2023-03-20T22:24:48.653Z,1.40
2023-03-20T22:28:03.793Z,1.30
2023-03-20T22:31:19.561Z,0.90
2023-03-20T22:37:53.976Z,0.35
2023-03-20T22:41:32.122Z,0.40
2023-03-20T22:47:25.671Z,1.60
2023-03-20T22:50:28.093Z,0.43
2023-03-20T22:53:30.111Z,1.67
2023-03-20T22:56:32.208Z,0.00
2023-03-20T22:59:34.066Z,0.00
2023-03-20T23:02:36.760Z,0.45
2023-03-20T23:05:39.834Z,1.35
2023-03-20T23:08:49.225Z,1.35
2023-03-20T23:11:55.876Z,1.42
2023-03-20T23:14:58.164Z,0.00
2023-03-20T23:18:00.007Z,1.50
2023-03-20T23:21:02.584Z,1.00
2023-03-20T23:27:06.537Z,0.73
2023-03-20T23:30:11.200Z,0.75
2023-03-20T23:33:13.064Z,0.20
2023-03-20T23:36:28.875Z,0.10
2023-03-20T23:39:37.082Z,0.15
2023-03-20T23:42:38.959Z,0.10
2023-03-20T23:45:40.915Z,0.93
2023-03-20T23:48:42.881Z,0.73
2023-03-20T23:51:44.810Z,0.22
2023-03-20T23:54:49.114Z,0.10
2023-03-20T23:57:51.047Z,0.00
